Terminal Aerodrome Forecast
Issued by NWS Cleveland, OH

Home | Current Version | Previous Version | Graphics & Text | Print | Product List | Glossary Off
Versions: 1 2 3 4 5 6 7 8 9 10 11 12 13

980
FTUS41 KCLE 151720
TAFYNG
TAF
KYNG 151720Z 1518/1618 20003KT P6SM BKN250
     FM161200 12003KT 5SM BR BKN025 OVC120=

USA.gov is the U.S. government's official web portal to all federal, state and local government web resources and services.